Latest Weather Observations for Jervois

IDD60801

Issued at 10:31 pm CST Thursday 18 December 2014 (issued every 30 minutes, with the page automatically refreshed every 10 minutes)

About weather observations | Map of weather stations | Latest weather observations for NT | Other Formats
Station Details ID: 015602 Name: JERVOIS Lat: -22.95 Lon: 136.14 Height: 328.0 m
Data from the previous 72 hours. | See also: Recent months at Jervois
Date/Time
CST
Temp
°C
App
Temp
°C
Dew
Point
Rel
Hum
%
Delta-T
°C
Wind Press
QNH
hPa
Press
MSL
hPa
Rain
since 9 am
mm
Dir
 
Spd
km/h
Gust
km/h
Spd
kts
Gust
kts
18/10:30pm 23.5 28.2 22.0 91 1.0 CALM 0 0 0 0 1014.1 - 2.6
18/10:00pm 23.8 28.1 21.2 85 1.7 CALM 0 0 0 0 1013.8 - 2.6
18/09:30pm 24.0 27.1 21.0 83 2.0 SE 6 7 3 4 1013.6 - 2.6
18/09:00pm 24.3 27.3 20.8 81 2.3 SSE 6 9 3 5 1013.5 1011.0 2.6
18/08:30pm 24.6 27.3 20.7 79 2.6 SSE 7 11 4 6 1013.4 - 2.6
18/08:00pm 24.8 26.7 20.6 77 2.8 SSE 11 15 6 8 1013.2 - 2.6
18/07:30pm 25.2 26.6 20.4 74 3.2 SSE 13 19 7 10 1013.1 - 2.6
18/07:00pm 25.7 26.8 20.4 72 3.5 SSE 15 20 8 11 1012.9 - 2.6
18/06:30pm 26.1 27.0 20.8 72 3.5 S 17 22 9 12 1012.5 - 2.6
18/06:00pm 26.0 28.4 20.9 73 3.4 S 9 19 5 10 1012.5 1010.1 2.6
18/05:30pm 26.7 28.2 20.5 69 4.1 S 13 17 7 9 1012.4 - 2.6
18/05:00pm 26.1 28.3 20.5 71 3.7 S 9 13 5 7 1012.3 - 2.6
18/04:30pm 26.6 29.5 21.1 72 3.7 S 7 13 4 7 1012.3 - 2.6
18/04:00pm 25.8 28.9 20.2 71 3.7 SSW 4 9 2 5 1012.6 - 2.6
18/03:30pm 25.3 27.9 20.5 75 3.2 SSW 7 13 4 7 1013.0 - 2.6
18/03:00pm 24.9 27.8 20.7 77 2.8 SSE 6 11 3 6 1013.0 1010.6 2.6
18/02:30pm 24.0 26.8 20.4 80 2.4 SE 6 11 3 6 1013.3 - 2.6
18/02:00pm 23.6 26.2 20.1 81 2.3 SE 6 9 3 5 1013.9 - 2.6
18/01:30pm 23.0 24.8 20.4 85 1.7 NE 11 20 6 11 1014.3 - 2.6
18/01:00pm 22.5 22.0 20.0 86 1.6 NE 22 32 12 17 1013.3 - 2.6
18/12:30pm 22.3 20.8 20.3 88 1.3 NE 28 37 15 20 1013.3 - 2.6
18/12:00pm 21.9 22.2 19.7 87 1.4 NE 17 22 9 12 1014.5 1012.3 2.6
18/11:30am 22.0 22.6 20.3 90 1.1 ENE 17 22 9 12 1014.8 - 2.6
18/11:00am 21.5 22.4 20.0 91 1.0 ENE 15 22 8 12 1015.5 - 2.6
18/10:30am 21.5 22.7 19.8 90 1.1 E 13 15 7 8 1016.1 - 2.2
18/10:00am 21.1 22.5 19.5 90 1.0 E 11 15 6 8 1016.5 - 1.4
18/09:30am 21.2 22.6 19.6 90 1.0 E 11 15 6 8 1016.5 - 0.6
18/09:00am 21.3 22.9 19.9 92 0.9 E 11 15 6 8 1016.4 1013.9 15.0
18/08:30am 21.7 23.7 20.0 90 1.1 E 9 15 5 8 1015.9 - 12.6
18/08:00am 22.0 23.5 19.7 87 1.5 SE 11 17 6 9 1015.9 - 11.4
18/07:30am 22.1 22.9 19.8 87 1.5 SE 15 22 8 12 1015.4 - 11.2
18/07:00am 21.9 23.2 20.1 89 1.2 S 13 20 7 11 1014.9 - 11.0
18/06:30am 21.7 23.4 20.2 91 1.0 S 11 19 6 10 1014.0 - 10.2
18/06:00am 21.3 23.9 20.1 93 0.8 WSW 6 9 3 5 1013.9 1011.6 8.6
18/05:30am 21.2 22.3 19.7 91 1.0 W 13 20 7 11 1014.0 - 5.8
18/05:00am 21.6 21.8 19.3 87 1.5 W 17 30 9 16 1014.0 - 3.4
18/04:30am 22.3 18.3 18.5 79 2.4 W 37 76 20 41 1012.9 - 1.8
18/04:26am 25.2 21.5 16.9 60 5.2 W 32 76 17 41 1012.6 - 0.8
18/04:25am 26.8 23.7 16.6 53 6.4 W 28 50 15 27 1012.3 - 0.6
18/04:24am 27.4 24.5 16.0 49 7.1 W 26 43 14 23 1012.0 - 0.6
18/04:18am 27.4 25.9 15.2 47 7.5 SSW 17 35 9 19 1009.9 - 0.6
18/04:00am 27.9 25.5 16.3 49 7.3 SSE 24 33 13 18 1007.8 - 0.6
18/03:30am 27.5 27.5 18.2 57 6.0 ESE 15 17 8 9 1007.6 - 0.4
18/03:00am 30.3 25.6 14.4 38 9.8 NNW 32 48 17 26 1008.4 1005.9 0.0
18/02:56am 31.6 27.0 12.2 30 11.6 WNW 28 48 15 26 1008.2 - 0.0
18/02:40am 32.4 26.6 7.8 21 13.8 WNW 28 44 15 24 1007.6 - 0.0
18/02:30am 31.5 29.6 9.0 24 12.8 SW 9 17 5 9 1006.8 - 0.0
18/02:00am 31.7 30.7 10.2 26 12.5 SW 6 9 3 5 1006.4 - 0.0
18/01:30am 31.3 31.4 10.0 26 12.3 CALM 0 4 0 2 1006.5 - 0.0
18/01:00am 31.4 30.3 10.5 27 12.2 NE 7 9 4 5 1006.9 - 0.0
18/12:30am 31.3 31.7 11.1 29 11.9 CALM 0 0 0 0 1007.2 - 0.0
18/12:00am 31.3 30.7 11.8 30 11.6 ESE 6 7 3 4 1007.2 1004.8 0.0
 
Date/Time
CST
Temp
°C
App
Temp
°C
Dew
Point
Rel
Hum
%
Delta-T
°C
Wind Press
QNH
hPa
Press
MSL
hPa
Rain
since 9 am
mm
Dir
 
Spd
km/h
Gust
km/h
Spd
kts
Gust
kts
17/11:30pm 31.7 30.8 10.7 27 12.3 SSE 6 7 3 4 1007.3 - 0.0
17/11:00pm 32.8 31.8 10.2 25 13.2 SSE 6 9 3 5 1007.4 - 0.0
17/10:30pm 33.3 31.1 9.2 22 13.8 ESE 11 15 6 8 1007.3 - 0.0
17/10:00pm 33.7 30.5 8.5 21 14.4 SE 15 20 8 11 1007.2 - 0.0
17/09:30pm 34.0 31.1 8.1 20 14.7 SE 13 20 7 11 1007.0 - 0.0
17/09:00pm 34.5 30.8 7.9 19 15.1 SSE 17 26 9 14 1006.7 1004.3 0.0
17/08:30pm 34.9 30.7 7.5 18 15.4 SSE 19 28 10 15 1006.7 - 0.0
17/08:00pm 35.5 31.7 7.4 17 15.9 SSE 17 26 9 14 1006.5 - 0.0
17/07:30pm 36.0 32.2 7.5 17 16.2 S 17 28 9 15 1006.2 - 0.0
17/07:00pm 36.8 32.4 7.6 16 16.6 SSE 20 30 11 16 1005.6 - 0.0
17/06:30pm 38.2 34.4 9.1 17 17.1 SSE 19 30 10 16 1004.8 - 0.0
17/06:00pm 39.2 36.7 9.6 17 17.6 S 13 24 7 13 1004.5 1002.0 0.0
17/05:30pm 39.5 37.4 9.9 17 17.6 SSE 11 17 6 9 1004.3 - 0.0
17/05:00pm 39.3 37.9 10.9 18 17.2 SSE 9 20 5 11 1004.2 - 0.0
17/04:30pm 39.9 38.2 9.8 16 17.9 SSW 9 24 5 13 1004.2 - 0.0
17/04:00pm 39.6 37.3 10.6 17 17.5 SSE 13 22 7 12 1004.4 - 0.0
17/03:30pm 40.4 38.9 10.5 16 18.0 SSW 9 17 5 9 1004.6 - 0.0
17/03:00pm 40.5 39.0 10.4 16 18.2 SW 9 20 5 11 1005.2 1002.7 0.0
17/02:30pm 39.7 37.0 10.3 17 17.6 S 15 24 8 13 1005.6 - 0.0
17/02:00pm 38.7 35.8 10.9 19 16.8 SSE 17 30 9 16 1006.0 - 0.0
17/01:30pm 39.0 36.1 10.9 18 17.0 SSW 17 26 9 14 1006.3 - 0.0
17/01:00pm 38.3 33.9 11.8 20 16.2 S 26 35 14 19 1006.7 - 0.0
17/12:30pm 40.7 38.6 8.3 14 19.0 W 9 24 5 13 1006.9 - 0.0
17/12:00pm 40.2 37.4 8.5 15 18.6 NNE 13 20 7 11 1007.5 1005.2 0.0
17/11:30am 38.9 35.5 9.0 16 17.5 E 17 24 9 13 1007.8 - 0.0
17/11:00am 37.8 34.3 8.9 17 16.9 NNE 17 30 9 16 1008.2 - 0.0
17/10:30am 38.0 36.2 10.9 19 16.3 SE 11 24 6 13 1008.7 - 0.0
17/10:00am 36.7 35.0 11.1 21 15.4 SSE 11 17 6 9 1008.6 - 0.0
17/09:30am 36.1 34.4 11.1 22 15.0 S 11 17 6 9 1009.0 - 0.0
17/09:00am 35.3 33.0 11.8 24 14.2 SSE 15 24 8 13 1008.9 1006.5 0.0
17/08:30am 34.4 31.7 11.8 25 13.6 SSE 17 24 9 13 1008.7 - 0.0
17/08:00am 32.6 31.4 14.0 32 11.5 SSE 13 17 7 9 1008.6 - 0.0
17/07:30am 31.1 31.0 14.9 37 10.1 SE 9 15 5 8 1008.6 - 0.0
17/07:00am 29.8 30.4 15.8 42 8.8 SE 7 11 4 6 1008.4 - 0.0
17/06:30am 29.4 29.5 15.5 43 8.7 SSE 9 17 5 9 1008.2 - 0.0
17/06:00am 29.6 29.1 14.9 40 9.1 SSE 11 17 6 9 1008.0 1005.6 0.0
17/05:30am 30.3 29.4 13.7 36 10.1 S 11 19 6 10 1008.6 - 0.0
17/05:00am 30.4 29.8 13.4 35 10.3 S 9 15 5 8 1007.8 - 0.0
17/04:30am 30.4 29.3 13.2 35 10.4 SSE 11 17 6 9 1007.1 - 0.0
17/04:00am 30.6 29.0 12.8 33 10.7 SE 13 20 7 11 1006.9 - 0.0
17/03:30am 30.5 28.2 13.1 34 10.5 SE 17 32 9 17 1006.7 - 0.0
17/03:00am 30.5 27.5 13.8 36 10.2 S 22 32 12 17 1006.8 1004.5 0.0
17/02:30am 30.8 27.7 14.5 37 10.1 S 24 44 13 24 1007.0 - 0.0
17/02:00am 31.3 27.0 14.5 36 10.4 S 30 44 16 24 1006.9 - 0.0
17/01:33am 32.5 27.9 13.6 31 11.6 SSW 30 48 16 26 1006.7 - 0.0
17/01:30am 32.8 28.0 12.9 29 12.1 SSW 30 43 16 23 1006.6 - 0.0
17/01:24am 34.1 27.8 9.7 22 14.2 SSW 33 43 18 23 1006.7 - 0.0
17/01:00am 34.6 31.9 5.6 16 15.9 SW 9 13 5 7 1006.2 - 0.0
17/12:30am 33.1 30.2 4.5 16 15.2 W 9 17 5 9 1006.1 - 0.0
17/12:00am 32.0 31.0 10.2 26 12.7 E 6 7 3 4 1005.8 1003.4 0.0
 
Date/Time
CST
Temp
°C
App
Temp
°C
Dew
Point
Rel
Hum
%
Delta-T
°C
Wind Press
QNH
hPa
Press
MSL
hPa
Rain
since 9 am
mm
Dir
 
Spd
km/h
Gust
km/h
Spd
kts
Gust
kts
16/11:30pm 32.4 30.9 8.4 22 13.6 E 6 7 3 4 1005.8 - 0.0
16/11:00pm 32.4 31.6 11.1 27 12.6 E 6 7 3 4 1005.8 - 0.0
16/10:30pm 32.2 30.8 8.9 23 13.3 E 6 6 3 3 1005.8 - 0.0
16/10:00pm 31.9 30.2 7.5 22 13.6 E 6 6 3 3 1005.7 - 0.0
16/09:30pm 32.4 30.8 7.8 21 13.8 E 6 7 3 4 1005.6 - 0.0
16/09:00pm 33.6 32.3 9.2 22 14.1 ESE 6 7 3 4 1005.5 1003.1 0.0
16/08:30pm 34.9 33.4 9.3 21 14.8 SSE 7 7 4 4 1005.4 - 0.0
16/08:00pm 36.0 34.5 8.4 18 15.9 SSE 6 9 3 5 1005.2 - 0.0
16/07:30pm 36.6 36.3 8.7 18 16.1 CALM 0 0 0 0 1004.9 - 0.0
16/07:00pm 38.9 37.8 7.1 14 18.2 SSW 2 6 1 3 1005.0 - 0.0
16/06:30pm 39.7 39.3 8.2 15 18.3 CALM 0 7 0 4 1005.0 - 0.0
16/06:00pm 39.9 38.2 7.6 14 18.7 SSW 6 9 3 5 1004.9 1002.5 0.0
16/05:30pm 40.2 37.5 5.6 12 19.4 SW 9 13 5 7 1004.9 - 0.0
16/05:00pm 40.5 37.0 5.6 12 19.6 SSW 13 20 7 11 1004.7 - 0.0
16/04:30pm 40.5 36.5 4.8 11 19.8 SW 15 26 8 14 1005.0 - 0.0
16/04:00pm 41.3 37.5 4.1 10 20.5 WSW 13 24 7 13 1005.4 - 0.0
16/03:30pm 40.5 37.5 5.9 12 19.5 SW 11 19 6 10 1005.6 - 0.0
16/03:00pm 40.6 36.1 4.3 11 20.1 WSW 17 24 9 13 1005.9 1003.5 0.0
16/02:30pm 41.9 37.8 4.1 10 20.9 SW 15 20 8 11 1006.1 - 0.0
16/02:00pm 41.6 37.5 4.1 10 20.7 SW 15 24 8 13 1006.4 - 0.0
16/01:30pm 41.5 37.5 5.0 11 20.4 SSW 15 24 8 13 1006.6 - 0.0
16/01:00pm 41.4 37.0 4.7 10 20.5 S 17 54 9 29 1007.3 - 0.0
16/12:30pm 40.1 37.9 7.7 14 18.8 SE 9 20 5 11 1007.8 - 0.0
16/12:00pm 39.5 34.7 5.7 12 19.0 S 20 32 11 17 1008.2 1006.0 0.0
16/11:30am 39.3 34.6 5.2 12 19.0 S 19 33 10 18 1009.0 - 0.0
16/11:00am 37.8 32.1 4.9 13 18.1 S 24 41 13 22 1009.3 - 0.0
16/10:30am 38.7 34.3 6.6 14 18.2 S 19 33 10 18 1009.4 - 0.0
16/10:00am 37.6 32.3 6.6 15 17.5 S 24 37 13 20 1009.6 - 0.0
16/09:30am 36.6 30.0 6.1 15 17.0 SSE 30 44 16 24 1009.5 - 0.0
16/09:18am 36.1 28.9 5.7 15 16.8 S 33 52 18 28 1009.5 - 0.0
16/09:00am 35.5 28.7 5.1 15 16.6 S 30 46 16 25 1009.5 1007.0 0.0
16/08:30am 34.2 27.2 6.7 18 15.3 S 33 52 18 28 1009.6 - 0.0
16/08:00am 33.3 26.4 7.1 19 14.6 S 33 52 18 28 1009.5 - 0.0
16/07:41am 32.8 25.3 6.4 19 14.5 SSW 35 54 19 29 1009.5 - 0.0
16/07:30am 32.8 25.8 6.1 19 14.6 SSW 32 48 17 26 1009.5 - 0.0
16/07:09am 33.7 27.2 4.6 16 15.6 SW 28 46 15 25 1008.9 - 0.0
16/07:00am 33.7 27.7 3.6 15 15.9 SW 24 39 13 21 1008.6 - 0.0
16/06:30am 33.5 27.7 -0.1 11 16.6 W 20 37 11 20 1007.6 - 0.0
16/06:00am 30.7 26.3 0.5 14 14.9 NW 13 19 7 10 1006.4 1004.0 0.0
16/05:30am 29.2 25.4 1.7 17 13.7 W 11 15 6 8 1006.3 - 0.0
16/05:00am 29.4 26.1 2.2 17 13.6 WSW 9 13 5 7 1005.9 - 0.0
16/04:30am 30.9 27.1 1.8 15 14.6 W 11 13 6 7 1005.3 - 0.0
16/04:00am 32.0 27.7 1.2 14 15.4 NW 13 17 7 9 1004.8 - 0.0
16/03:30am 32.5 27.7 0.4 13 15.9 NW 15 19 8 10 1004.5 - 0.0
16/03:00am 32.7 27.5 0.1 12 16.2 NNW 17 20 9 11 1004.5 1002.0 0.0
16/02:30am 30.7 27.3 1.7 15 14.5 NNW 9 13 5 7 1004.4 - 0.0
16/02:00am 31.6 27.2 0.2 13 15.4 N 13 17 7 9 1004.5 - 0.0
16/01:30am 32.7 27.3 -1.3 11 16.4 N 17 22 9 12 1004.7 - 0.0
16/01:00am 32.9 27.1 -1.2 11 16.5 N 19 24 10 13 1004.9 - 0.0
16/12:30am 32.6 28.0 -0.7 12 16.2 N 13 17 7 9 1005.2 - 0.0
16/12:00am 31.8 27.6 1.9 15 15.2 N 13 17 7 9 1005.3 1002.8 0.0
 
Date/Time
CST
Temp
°C
App
Temp
°C
Dew
Point
Rel
Hum
%
Delta-T
°C
Wind Press
QNH
hPa
Press
MSL
hPa
Rain
since 9 am
mm
Dir
 
Spd
km/h
Gust
km/h
Spd
kts
Gust
kts
15/11:30pm 31.6 27.2 0.6 13 15.4 N 13 15 7 8 1005.4 - 0.0
15/11:00pm 32.0 27.4 -1.0 12 15.9 N 13 17 7 9 1005.3 - 0.0

Other Formats:

Comma delimited format used in spreadsheet applications
http://www.bom.gov.au/fwo/IDD60801/IDD60801.94327.axf

JavaScript Object Notation format (JSON) in row-major order
http://www.bom.gov.au/fwo/IDD60801/IDD60801.94327.json